Time;durP1;ratioP1;P1;durP2;ratioP2;P2;SDS_P1;SDS_P2;PMS_P1;PMS_P2;Temp;Humidity;BMP_temperature;BMP_pressure;BME280_temperature;BME280_humidity;BME280_pressure;Samples;Min_cycle;Max_cycle;Signal;HPM_P1;HPM_P2
2023/12/21 00:00:15;;;;;;;22.75;13.40;;;;;;;3.27;74.59;98601.22;4964213;28;20524;-92
2023/12/21 00:02:41;;;;;;;23.73;13.18;;;;;;;3.17;74.88;98596.53;4960337;28;20041;-93
2023/12/21 00:05:07;;;;;;;20.13;12.77;;;;;;;3.27;74.99;98609.19;4945095;28;20177;-93
2023/12/21 00:07:32;;;;;;;22.67;13.80;;;;;;;3.32;74.55;98608.47;4944570;28;20026;-93
2023/12/21 00:09:58;;;;;;;22.48;13.80;;;;;;;3.35;74.93;98630.09;4943453;28;20105;-92
2023/12/21 00:12:24;;;;;;;31.23;14.15;;;;;;;3.30;75.09;98619.38;4944031;28;20402;-92
2023/12/21 00:14:49;;;;;;;22.23;13.77;;;;;;;3.35;74.50;98624.78;4944017;28;20061;-93
2023/12/21 00:17:15;;;;;;;30.13;14.40;;;;;;;3.10;75.31;98616.34;4944491;28;20041;-93
2023/12/21 00:19:40;;;;;;;21.92;13.10;;;;;;;3.26;75.24;98644.84;4943502;28;20390;-92
2023/12/21 00:22:06;;;;;;;21.25;12.75;;;;;;;3.21;75.69;98652.72;4944184;28;20035;-92
2023/12/21 00:24:31;;;;;;;20.98;13.38;;;;;;;3.17;75.56;98648.91;4944082;28;20026;-91
2023/12/21 00:26:57;;;;;;;26.95;14.15;;;;;;;3.13;75.76;98647.78;4944140;28;20034;-91
2023/12/21 00:29:26;;;;;;;22.95;13.75;;;;;;;3.21;75.52;98658.03;4944117;28;20030;-92
2023/12/21 00:31:51;;;;;;;23.35;13.55;;;;;;;3.05;74.89;98641.00;4943906;28;20034;-91
2023/12/21 00:34:17;;;;;;;21.83;12.32;;;;;;;2.95;75.25;98646.94;4943469;28;20034;-91
2023/12/21 00:36:45;;;;;;;19.92;12.45;;;;;;;3.02;74.42;98644.94;4944249;28;20408;-91
2023/12/21 00:39:10;;;;;;;20.88;13.02;;;;;;;2.99;74.60;98648.06;4945251;28;20034;-93
2023/12/21 00:41:36;;;;;;;24.05;13.05;;;;;;;2.96;74.39;98648.53;4947248;28;20040;-92
2023/12/21 00:44:02;;;;;;;24.75;13.00;;;;;;;2.87;74.61;98662.47;4947033;28;20050;-93
2023/12/21 00:46:27;;;;;;;20.77;13.20;;;;;;;2.72;74.32;98649.63;4927960;28;20034;-93
2023/12/21 00:48:53;;;;;;;26.02;13.38;;;;;;;2.61;75.34;98654.78;4943317;28;20044;-91
2023/12/21 00:51:18;;;;;;;23.20;13.38;;;;;;;2.61;75.20;98652.13;4944548;28;20026;-90
2023/12/21 00:53:45;;;;;;;25.23;14.25;;;;;;;2.70;74.63;98659.69;4943513;28;20069;-92
2023/12/21 00:56:10;;;;;;;22.15;13.30;;;;;;;2.80;74.89;98659.91;4959911;28;20034;-91
2023/12/21 00:58:37;;;;;;;22.75;13.02;;;;;;;3.03;74.52;98688.31;4944794;28;20114;-92
2023/12/21 01:01:02;;;;;;;27.52;12.70;;;;;;;2.74;75.00;98650.22;4943683;28;20031;-93
2023/12/21 01:03:31;;;;;;;18.17;12.30;;;;;;;2.79;75.30;98677.72;4944156;28;20022;-93
2023/12/21 01:05:56;;;;;;;26.55;13.65;;;;;;;2.57;75.46;98647.47;4943249;28;20043;-92
2023/12/21 01:08:22;;;;;;;23.90;13.25;;;;;;;2.55;75.23;98660.19;4943276;28;20112;-93
2023/12/21 01:10:47;;;;;;;19.00;12.30;;;;;;;2.63;75.05;98659.84;4943437;28;20062;-92
2023/12/21 01:13:13;;;;;;;22.50;12.80;;;;;;;2.76;75.14;98669.41;4943546;28;20041;-92
2023/12/21 01:15:38;;;;;;;20.85;12.00;;;;;;;2.84;74.53;98669.03;4943984;28;20030;-92
2023/12/21 01:18:04;;;;;;;26.88;13.48;;;;;;;2.74;74.68;98650.22;4942884;28;20030;-94
2023/12/21 01:20:30;;;;;;;20.48;12.57;;;;;;;2.95;75.22;98681.50;4942175;28;20042;-91
2023/12/21 01:22:55;;;;;;;21.77;13.02;;;;;;;2.83;75.10;98667.44;4943142;28;20051;-92
2023/12/21 01:25:21;;;;;;;25.23;14.23;;;;;;;2.74;74.87;98661.69;4942595;28;20047;-93
2023/12/21 01:27:46;;;;;;;23.08;13.07;;;;;;;2.66;74.78;98645.25;4943252;28;20034;-94
2023/12/21 01:30:12;;;;;;;21.58;12.50;;;;;;;2.91;75.21;98663.59;4943173;28;20038;-92
2023/12/21 01:32:37;;;;;;;22.52;12.10;;;;;;;2.96;74.99;98688.41;4943243;28;20038;-92
2023/12/21 01:35:04;;;;;;;24.60;13.65;;;;;;;2.80;74.81;98650.09;4943686;28;20038;-92
2023/12/21 01:37:29;;;;;;;21.90;13.55;;;;;;;2.81;75.16;98658.88;4958688;28;20031;-92
2023/12/21 01:39:55;;;;;;;20.60;12.20;;;;;;;2.93;74.59;98680.94;4943509;28;20034;-94
2023/12/21 01:42:21;;;;;;;27.30;14.80;;;;;;;2.85;74.95;98661.88;4953170;28;20022;-92
2023/12/21 01:44:46;;;;;;;23.58;13.65;;;;;;;2.56;75.30;98633.41;4978474;28;20034;-92
2023/12/21 01:47:12;;;;;;;25.30;14.52;;;;;;;2.65;75.30;98659.59;4978721;28;20515;-92
2023/12/21 01:49:37;;;;;;;25.15;13.82;;;;;;;2.65;75.32;98671.03;4962173;28;20030;-93
2023/12/21 01:52:05;;;;;;;25.33;12.82;;;;;;;2.82;74.26;98674.59;4962344;28;20018;-92
2023/12/21 01:54:31;;;;;;;20.02;12.40;;;;;;;2.74;74.41;98667.00;4962681;28;20117;-92
2023/12/21 01:56:56;;;;;;;24.00;13.68;;;;;;;2.80;74.27;98681.19;4945856;28;20484;-93
2023/12/21 01:59:22;;;;;;;21.08;13.15;;;;;;;2.61;74.06;98660.09;4946525;28;20027;-93
2023/12/21 02:01:47;;;;;;;20.52;12.25;;;;;;;2.70;74.09;98659.69;4946427;28;20065;-92
2023/12/21 02:04:13;;;;;;;21.50;12.43;;;;;;;2.63;74.29;98657.97;4961643;28;20049;-92
2023/12/21 02:06:38;;;;;;;19.23;12.10;;;;;;;2.76;73.96;98674.72;4946038;28;20023;-91
2023/12/21 02:09:04;;;;;;;19.92;11.55;;;;;;;2.76;74.11;98661.41;4945723;28;20121;-91
2023/12/21 02:11:29;;;;;;;13.60;8.48;;;;;;;2.90;74.43;98693.88;4962819;28;20035;-92
2023/12/21 02:13:55;;;;;;;11.43;7.68;;;;;;;2.78;74.56;98665.47;4962295;28;20026;-92
2023/12/21 02:16:26;;;;;;;17.00;9.95;;;;;;;2.63;74.51;98643.88;4961636;28;20029;-91
2023/12/21 02:18:51;;;;;;;23.02;13.65;;;;;;;2.59;74.50;98674.63;4947246;28;20023;-92
2023/12/21 02:21:17;;;;;;;20.08;12.80;;;;;;;2.51;73.96;98685.63;4961706;28;20034;-92
2023/12/21 02:23:42;;;;;;;20.73;12.68;;;;;;;2.27;74.63;98669.69;4942650;28;20055;-92
2023/12/21 02:26:09;;;;;;;22.90;13.27;;;;;;;2.13;74.63;98663.81;4958696;28;20022;-92
2023/12/21 02:28:34;;;;;;;25.05;14.52;;;;;;;2.14;74.57;98675.25;4959095;28;20019;-92
2023/12/21 02:31:02;;;;;;;23.42;13.43;;;;;;;1.78;74.95;98645.19;4958477;28;20068;-92
2023/12/21 02:33:28;;;;;;;25.30;14.23;;;;;;;1.88;75.43;98655.25;4961202;28;20401;-91
2023/12/21 02:35:53;;;;;;;23.58;13.60;;;;;;;2.00;75.38;98659.53;4977992;28;20027;-92
2023/12/21 02:38:19;;;;;;;29.42;15.77;;;;;;;1.97;75.13;98662.66;4978004;28;20026;-93
2023/12/21 02:40:44;;;;;;;25.63;14.55;;;;;;;2.02;75.73;98672.59;4942210;29;20023;-92
2023/12/21 02:43:10;;;;;;;27.45;14.80;;;;;;;2.06;75.57;98680.91;4942464;29;20042;-92
2023/12/21 02:45:35;;;;;;;23.58;14.02;;;;;;;2.09;75.17;98653.88;4957903;28;20026;-92
2023/12/21 02:48:01;;;;;;;21.88;13.80;;;;;;;2.25;75.36;98674.44;4958381;29;20024;-92
2023/12/21 02:50:26;;;;;;;24.90;14.07;;;;;;;2.19;75.21;98649.59;4959447;29;20023;-92
2023/12/21 02:52:52;;;;;;;19.83;12.70;;;;;;;2.23;75.32;98663.22;4959075;29;20027;-91
2023/12/21 02:55:17;;;;;;;26.17;13.70;;;;;;;2.17;75.57;98635.75;4958681;29;20123;-91
2023/12/21 02:57:43;;;;;;;25.17;13.15;;;;;;;2.37;75.63;98656.66;4959040;29;20019;-92
2023/12/21 03:00:09;;;;;;;22.15;12.10;;;;;;;2.43;75.23;98654.91;4942711;29;20023;-92
2023/12/21 03:02:34;;;;;;;21.20;12.45;;;;;;;2.45;75.55;98652.84;4942935;29;20039;-93
2023/12/21 03:05:00;;;;;;;20.98;13.40;;;;;;;2.17;75.48;98626.97;4959886;29;20030;-92
2023/12/21 03:07:25;;;;;;;23.13;13.02;;;;;;;2.44;75.64;98677.78;4958180;29;20022;-92
2023/12/21 03:09:51;;;;;;;23.88;13.55;;;;;;;2.27;75.16;98631.72;4958454;29;20568;-92
2023/12/21 03:12:16;;;;;;;23.33;13.75;;;;;;;2.18;74.83;98644.53;4958908;29;20019;-92
2023/12/21 03:14:42;;;;;;;27.30;13.60;;;;;;;2.19;74.89;98659.44;4942385;28;20023;-92
2023/12/21 03:17:08;;;;;;;27.95;14.38;;;;;;;2.36;74.60;98670.94;4958946;29;20023;-94
2023/12/21 03:19:34;;;;;;;20.33;12.18;;;;;;;2.35;74.65;98655.28;4958403;28;20042;-95
2023/12/21 03:21:59;;;;;;;25.38;12.48;;;;;;;2.39;74.95;98651.91;4976748;28;20027;-94
2023/12/21 03:24:25;;;;;;;21.75;13.75;;;;;;;2.47;74.50;98671.19;4929990;28;20095;-95
2023/12/21 03:26:50;;;;;;;26.77;13.75;;;;;;;2.26;74.26;98638.06;4947191;28;20015;-92
2023/12/21 03:29:16;;;;;;;20.88;12.93;;;;;;;2.31;74.39;98659.44;4930261;28;20027;-91
2023/12/21 03:31:42;;;;;;;28.35;13.60;;;;;;;2.18;74.52;98653.31;4946170;28;20026;-91
2023/12/21 03:34:07;;;;;;;26.08;13.20;;;;;;;2.12;74.61;98656.88;4929748;28;20023;-92
2023/12/21 03:36:33;;;;;;;23.65;14.05;;;;;;;2.12;74.95;98683.44;4945643;28;20038;-91
2023/12/21 03:39:01;;;;;;;19.42;12.52;;;;;;;2.00;74.32;98646.25;4946284;28;20128;-91
2023/12/21 03:41:26;;;;;;;24.65;13.07;;;;;;;2.10;74.50;98664.28;4946304;28;20093;-91
2023/12/21 03:43:52;;;;;;;18.70;12.05;;;;;;;2.30;74.22;98690.47;4944352;28;20026;-92
2023/12/21 03:46:18;;;;;;;20.05;12.52;;;;;;;1.97;74.34;98649.38;4945482;28;20038;-91
2023/12/21 03:48:44;;;;;;;21.63;12.32;;;;;;;2.07;74.38;98661.28;4930285;28;20477;-92
2023/12/21 03:51:09;;;;;;;24.23;12.73;;;;;;;2.05;74.32;98642.91;4929631;28;20026;-92
2023/12/21 03:53:36;;;;;;;23.25;13.05;;;;;;;2.12;74.17;98674.69;4944922;28;20026;-92
2023/12/21 03:56:02;;;;;;;17.30;12.15;;;;;;;1.89;74.51;98644.41;4946293;28;20081;-92
2023/12/21 03:58:28;;;;;;;24.08;12.73;;;;;;;2.10;74.25;98669.59;4945590;28;20042;-93
2023/12/21 04:00:53;;;;;;;24.13;12.40;;;;;;;2.01;74.38;98669.13;4960783;28;20030;-92
2023/12/21 04:03:19;;;;;;;28.80;11.98;;;;;;;2.12;74.07;98686.09;4928593;28;20489;-92
2023/12/21 04:05:46;;;;;;;23.52;12.48;;;;;;;1.88;74.77;98668.53;4945148;28;20046;-92
2023/12/21 04:08:11;;;;;;;22.25;11.95;;;;;;;1.71;74.52;98673.69;4945692;28;20047;-93
2023/12/21 04:10:37;;;;;;;22.20;12.70;;;;;;;1.56;75.13;98648.41;4944362;28;20513;-93
2023/12/21 04:13:02;;;;;;;25.23;13.95;;;;;;;1.58;75.42;98669.41;4944142;28;20030;-91
2023/12/21 04:15:29;;;;;;;25.52;14.40;;;;;;;1.53;75.48;98680.69;4929579;28;20483;-92
2023/12/21 04:17:54;;;;;;;23.23;14.27;;;;;;;1.44;76.16;98675.94;4943889;28;20027;-92
2023/12/21 04:20:20;;;;;;;23.67;13.27;;;;;;;1.43;75.62;98685.72;4927817;28;20082;-93
2023/12/21 04:22:45;;;;;;;25.50;14.20;;;;;;;1.45;75.82;98704.88;4943787;28;20062;-93
2023/12/21 04:25:10;;;;;;;24.30;15.25;;;;;;;1.41;75.76;98696.59;4944808;28;20035;-92
2023/12/21 04:27:39;;;;;;;29.15;14.18;;;;;;;1.34;75.91;98701.16;4944993;28;20019;-91
2023/12/21 04:30:05;;;;;;;25.48;14.82;;;;;;;1.23;76.65;98712.53;4955127;28;20022;-90
2023/12/21 04:32:33;;;;;;;28.88;15.20;;;;;;;1.24;76.14;98708.84;4960747;28;20034;-95
2023/12/21 04:34:59;;;;;;;25.13;14.60;;;;;;;1.29;76.75;98724.91;4929716;28;20027;-91
2023/12/21 04:37:25;;;;;;;23.92;13.73;;;;;;;1.34;76.57;98721.56;4944156;28;20405;-92
2023/12/21 04:39:51;;;;;;;21.63;13.70;;;;;;;1.46;76.30;98726.94;4944705;28;20050;-91
2023/12/21 04:42:16;;;;;;;22.10;14.43;;;;;;;1.44;76.14;98716.53;4945109;28;20022;-93
2023/12/21 04:44:42;;;;;;;28.10;14.00;;;;;;;1.36;76.22;98688.47;4948580;28;20023;-93
2023/12/21 04:47:09;;;;;;;27.88;18.48;;;;;;;1.48;76.17;98693.03;4947428;28;20023;-93
2023/12/21 04:49:35;;;;;;;29.48;14.85;;;;;;;1.56;76.04;98703.31;4944909;28;20509;-92
2023/12/21 04:52:02;;;;;;;26.48;14.88;;;;;;;1.40;76.58;98710.88;4944369;28;20029;-91
2023/12/21 04:54:28;;;;;;;29.15;15.50;;;;;;;1.37;76.51;98706.03;4930491;28;20050;-91
2023/12/21 04:56:53;;;;;;;28.40;15.90;;;;;;;1.63;76.37;98732.41;4962857;28;20026;-92
2023/12/21 04:59:21;;;;;;;30.52;15.80;;;;;;;1.47;76.29;98700.16;4978792;28;20026;-91
2023/12/21 05:01:54;;;;;;;37.95;17.48;;;;;;;1.57;76.25;98724.28;4962778;28;20030;-92
2023/12/21 05:04:19;;;;;;;26.83;16.13;;;;;;;1.50;76.46;98718.28;4950573;28;20109;-92
2023/12/21 05:06:45;;;;;;;34.05;17.15;;;;;;;1.40;76.40;98702.91;4946722;28;20064;-92
2023/12/21 05:09:10;;;;;;;27.88;16.27;;;;;;;1.47;76.49;98720.56;4962748;28;20022;-92
2023/12/21 05:11:38;;;;;;;29.02;16.50;;;;;;;1.66;76.21;98746.03;4964027;28;20076;-91
2023/12/21 05:14:04;;;;;;;31.00;17.92;;;;;;;1.58;76.12;98733.09;4943355;28;20043;-92
2023/12/21 05:16:29;;;;;;;33.13;18.30;;;;;;;1.67;75.94;98754.81;4938075;28;20042;-93
2023/12/21 05:18:55;;;;;;;45.13;27.55;;;;;;;1.49;76.24;98714.00;4959784;28;20054;-92
2023/12/21 05:21:20;;;;;;;33.58;19.45;;;;;;;1.56;75.22;98724.53;4946141;28;20061;-92
2023/12/21 05:23:57;;;;;;;30.20;17.70;;;;;;;1.73;75.12;98749.41;4978688;28;20532;-92
2023/12/21 05:26:22;;;;;;;32.88;19.02;;;;;;;1.71;75.59;98754.13;4980926;28;20087;-93
2023/12/21 05:28:50;;;;;;;33.45;17.50;;;;;;;1.55;75.42;98729.03;4962437;28;20030;-93
2023/12/21 05:31:25;;;;;;;421.05;370.25;;;;;;;1.50;75.80;98714.84;4967872;28;20050;-92
2023/12/21 05:33:52;;;;;;;39.85;25.67;;;;;;;1.74;75.91;98756.34;4955840;28;20041;-91
2023/12/21 05:36:21;;;;;;;33.67;18.67;;;;;;;1.53;75.06;98733.75;4959806;28;20417;-91
2023/12/21 05:38:46;;;;;;;36.35;17.98;;;;;;;1.52;74.39;98724.19;4942870;28;20039;-93
2023/12/21 05:41:12;;;;;;;31.65;19.45;;;;;;;1.55;74.43;98736.19;4942826;28;20104;-93
2023/12/21 05:43:38;;;;;;;43.60;20.13;;;;;;;1.73;75.10;98761.84;4941161;28;20030;-93
2023/12/21 05:46:04;;;;;;;40.78;21.20;;;;;;;1.53;75.09;98735.59;4944219;28;20037;-92
2023/12/21 05:48:32;;;;;;;31.27;18.05;;;;;;;1.48;75.29;98738.13;4959376;28;20053;-91
2023/12/21 05:51:03;;;;;;;31.85;18.05;;;;;;;1.51;75.18;98742.97;4964695;28;20034;-91
2023/12/21 05:53:34;;;;;;;29.40;18.38;;;;;;;1.51;74.37;98735.00;4963754;28;20033;-91
2023/12/21 05:56:02;;;;;;;36.80;20.17;;;;;;;1.60;74.87;98742.44;4968258;28;20110;-95
2023/12/21 05:58:33;;;;;;;33.40;19.00;;;;;;;1.64;74.81;98744.63;4954562;28;20030;-95
2023/12/21 06:01:11;;;;;;;34.38;21.02;;;;;;;1.50;74.70;98736.84;4988572;28;20011;-96
2023/12/21 06:03:56;;;;;;;33.83;21.30;;;;;;;1.59;73.96;98737.34;4977504;28;20058;-95
2023/12/21 06:06:38;;;;;;;47.40;28.38;;;;;;;1.63;74.33;98729.75;4972704;28;20085;-96
2023/12/21 06:09:07;;;;;;;47.00;25.80;;;;;;;1.80;74.59;98758.06;4946584;28;20033;-95
2023/12/21 06:11:35;;;;;;;50.40;26.38;;;;;;;1.88;74.81;98769.41;4959619;28;20034;-96
2023/12/21 06:17:28;;;;;;;33.72;18.90;;;;;;;1.74;73.90;98748.38;4970232;28;20042;-96
2023/12/21 06:19:53;;;;;;;31.40;18.65;;;;;;;1.63;74.26;98780.97;4953977;28;20046;-94
2023/12/21 06:22:19;;;;;;;29.55;18.33;;;;;;;1.64;74.11;98757.88;4966460;28;20441;-95
2023/12/21 06:24:45;;;;;;;29.83;17.15;;;;;;;1.58;74.48;98772.88;4922507;28;20042;-95
2023/12/21 06:27:11;;;;;;;28.70;17.88;;;;;;;1.74;74.40;98792.66;4935473;28;20113;-94
2023/12/21 06:29:37;;;;;;;32.45;16.98;;;;;;;1.66;74.14;98774.41;4938411;28;20027;-95
2023/12/21 06:32:03;;;;;;;31.08;17.73;;;;;;;1.82;74.64;98776.41;4949492;28;20106;-95
2023/12/21 06:34:32;;;;;;;32.33;19.90;;;;;;;1.80;73.73;98763.38;4934749;28;20027;-94
2023/12/21 06:37:01;;;;;;;33.55;22.13;;;;;;;1.92;74.16;98763.41;4934928;28;20030;-94
2023/12/21 06:39:28;;;;;;;39.60;21.83;;;;;;;2.10;74.19;98791.75;4955109;28;20125;-96
2023/12/21 06:42:00;;;;;;;40.90;24.20;;;;;;;2.15;74.42;98775.13;4925706;29;20051;-96
2023/12/21 06:44:26;;;;;;;40.90;22.80;;;;;;;2.37;73.95;98794.00;4920923;29;20471;-95
2023/12/21 06:46:52;;;;;;;41.53;21.35;;;;;;;2.46;73.38;98781.97;4927762;29;20063;-95
2023/12/21 06:49:20;;;;;;;45.50;25.45;;;;;;;2.44;73.53;98757.47;4934091;29;20068;-96
2023/12/21 06:51:50;;;;;;;43.20;23.30;;;;;;;2.67;73.19;98763.84;4946664;29;20495;-96
2023/12/21 06:54:16;;;;;;;48.38;23.67;;;;;;;2.96;72.31;98793.97;4914993;29;20539;-95
2023/12/21 06:56:44;;;;;;;43.42;24.63;;;;;;;2.67;73.16;98783.25;4915631;29;20047;-96
2023/12/21 06:59:10;;;;;;;43.88;23.95;;;;;;;2.76;73.30;98789.84;4916616;29;20048;-94
2023/12/21 07:01:39;;;;;;;40.67;23.98;;;;;;;2.92;73.26;98792.81;4914116;29;20023;-94
2023/12/21 07:04:05;;;;;;;38.95;20.95;;;;;;;3.01;72.16;98789.59;4914853;29;20050;-95
2023/12/21 07:06:30;;;;;;;38.03;23.95;;;;;;;3.03;72.12;98784.84;4911432;29;20434;-96
2023/12/21 07:08:56;;;;;;;36.92;20.38;;;;;;;3.30;72.06;98815.44;4912902;29;20040;-95
2023/12/21 07:11:26;;;;;;;37.60;21.45;;;;;;;3.27;71.60;98805.28;4927608;29;20040;-95
2023/12/21 07:13:54;;;;;;;35.28;22.30;;;;;;;3.40;71.77;98819.13;4912166;29;20027;-95
2023/12/21 07:16:26;;;;;;;33.63;19.77;;;;;;;3.39;71.29;98804.19;4912072;29;20032;-96
2023/12/21 07:18:52;;;;;;;38.30;22.67;;;;;;;3.26;71.75;98801.81;4876142;29;20048;-95
2023/12/21 07:21:30;;;;;;;;;;;;;;;;;;;;;
2023/12/21 07:23:56;;;;;;;43.85;26.63;;;;;;;3.27;71.11;98818.56;4937197;29;20130;-95
2023/12/21 07:26:22;;;;;;;56.35;32.05;;;;;;;3.35;71.10;98808.38;4944956;29;20071;-95
2023/12/21 07:28:47;;;;;;;50.80;27.88;;;;;;;3.49;70.68;98818.78;4945559;28;20032;-95
2023/12/21 07:31:22;;;;;;;54.45;28.77;;;;;;;3.56;70.34;98806.91;4962925;29;20027;-95
2023/12/21 07:33:48;;;;;;;49.13;29.55;;;;;;;3.82;70.21;98826.06;4963762;28;20027;-94
2023/12/21 07:36:22;;;;;;;62.13;30.35;;;;;;;3.80;70.19;98810.31;4946649;28;20058;-95
2023/12/21 07:38:48;;;;;;;53.38;29.58;;;;;;;3.99;69.89;98816.25;4964181;29;20027;-95
2023/12/21 07:41:20;;;;;;;55.20;29.75;;;;;;;4.22;69.99;98835.84;4942101;29;20046;-95
2023/12/21 07:43:50;;;;;;;;;;;;;;;4.39;69.49;98846.50;4938573;28;20051;-95
2023/12/21 07:46:16;;;;;;;46.92;27.98;;;;;;;4.40;69.33;98835.63;4972089;28;19958;-95
2023/12/21 07:49:09;;;;;;;40.92;26.83;;;;;;;4.36;68.96;98810.50;4972394;28;20034;-94
2023/12/21 07:51:37;;;;;;;42.85;24.88;;;;;;;4.59;68.19;98817.50;4983956;28;20039;-94
2023/12/21 07:54:05;;;;;;;45.50;26.52;;;;;;;4.78;67.44;98835.94;4969978;28;20023;-95
2023/12/21 07:56:33;;;;;;;39.10;26.98;;;;;;;4.84;67.46;98809.09;4970934;28;20046;-95
2023/12/21 07:59:07;;;;;;;25.20;14.02;;;;;;;5.12;64.04;98815.34;4951411;29;20450;-95
2023/12/21 08:01:35;;;;;;;15.88;9.77;;;;;;;5.53;61.73;98826.53;4936169;29;20514;-95
2023/12/21 08:04:16;;;;;;;15.50;8.48;;;;;;;5.73;60.35;98817.97;4949315;28;20066;-96
2023/12/21 08:06:52;;;;;;;10.93;5.90;;;;;;;5.94;59.28;98794.13;4932077;29;20054;-95
2023/12/21 08:09:19;;;;;;;8.00;5.20;;;;;;;6.25;58.54;98804.06;4950558;29;20039;-95
2023/12/21 08:11:51;;;;;;;7.63;4.53;;;;;;;6.64;57.29;98830.59;4935964;29;20036;-96
2023/12/21 08:14:37;;;;;;;;;;;;;;;;;;;;;
2023/12/21 08:17:20;;;;;;;5.28;3.47;;;;;;;6.77;53.69;98812.50;4936696;29;20070;-96
2023/12/21 08:20:01;;;;;;;7.10;4.35;;;;;;;6.95;54.49;98797.88;4934337;29;20028;-95
2023/12/21 08:22:30;;;;;;;6.53;4.25;;;;;;;7.25;53.68;98827.50;4899880;28;20113;-96
2023/12/21 08:25:10;;;;;;;7.22;4.70;;;;;;;7.45;52.30;98810.75;4932249;29;20044;-94
2023/12/21 08:27:46;;;;;;;7.50;4.53;;;;;;;8.33;50.72;98801.00;4915953;29;20047;-96
2023/12/21 08:30:13;;;;;;;11.18;5.65;;;;;;;9.21;49.06;98825.91;4930475;29;20055;-94
2023/12/21 08:32:53;;;;;;;7.00;4.05;;;;;;;9.35;47.73;98834.19;4919600;29;20067;-96
2023/12/21 08:35:25;;;;;;;6.43;3.85;;;;;;;9.03;48.49;98817.38;4909657;29;20543;-96
2023/12/21 08:38:00;;;;;;;6.07;4.00;;;;;;;8.73;48.73;98802.09;4934919;29;20494;-94
2023/12/21 08:44:00;;;;;;;5.70;3.40;;;;;;;8.53;48.83;98804.78;4948563;29;20227;-94
2023/12/21 08:46:29;;;;;;;5.78;3.90;;;;;;;8.38;49.18;98803.69;4925974;29;20031;-94
2023/12/21 08:48:55;;;;;;;8.43;4.60;;;;;;;8.21;50.17;98795.09;4910496;29;20044;-92
2023/12/21 08:51:43;;;;;;;;;;;;;;;;;;;;;
2023/12/21 08:54:13;;;;;;;6.28;3.83;;;;;;;8.12;49.82;98781.44;4927993;29;20127;-95
2023/12/21 08:56:57;;;;;;;7.45;4.30;;;;;;;8.09;50.17;98779.25;4909127;29;20119;-95
2023/12/21 08:59:28;;;;;;;7.40;4.32;;;;;;;8.10;50.29;98779.00;4944638;29;20035;-93
2023/12/21 09:02:02;;;;;;;6.10;3.95;;;;;;;8.19;50.03;98791.88;4944075;29;20035;-94
2023/12/21 09:05:06;;;;;;;6.47;4.13;;;;;;;8.41;50.24;98807.75;4945578;29;20049;-95
2023/12/21 09:07:36;;;;;;;9.30;3.92;;;;;;;8.47;50.64;98799.44;4942180;29;20343;-93
2023/12/21 09:16:20;;;;;;;7.78;3.90;;;;;;;8.37;48.44;98751.13;4969552;28;20133;-96
2023/12/21 09:18:46;;;;;;;7.68;5.03;;;;;;;8.60;48.59;98786.56;4951165;28;20123;-94
2023/12/21 09:21:19;;;;;;;7.07;4.00;;;;;;;8.61;48.19;98758.63;4963906;28;20142;-95
2023/12/21 09:23:54;;;;;;;12.30;5.57;;;;;;;8.54;48.42;98756.22;4951759;29;20083;-96
2023/12/21 09:26:28;;;;;;;8.27;4.13;;;;;;;8.53;48.22;98727.81;4946350;29;20039;-95
2023/12/21 09:29:07;;;;;;;7.50;4.00;;;;;;;8.70;48.39;98749.78;4949237;28;20020;-95
2023/12/21 09:31:33;;;;;;;8.18;4.30;;;;;;;8.58;47.65;98719.72;4953510;28;20035;-94
2023/12/21 09:34:04;;;;;;;8.05;4.32;;;;;;;8.61;47.88;98705.78;4968767;28;20086;-94
2023/12/21 09:36:33;;;;;;;21.38;8.57;;;;;;;8.62;47.86;98711.94;4953249;28;20030;-94
2023/12/21 09:39:06;;;;;;;8.85;4.20;;;;;;;8.57;47.04;98715.47;4967346;28;20046;-94
2023/12/21 09:41:31;;;;;;;11.52;3.72;;;;;;;8.58;47.31;98700.16;4983546;28;20019;-93
2023/12/21 09:44:00;;;;;;;7.05;3.85;;;;;;;8.61;47.15;98708.47;4983478;28;20033;-96
2023/12/21 09:46:40;;;;;;;5.82;4.03;;;;;;;8.62;47.33;98711.94;4970706;28;20023;-96
2023/12/21 09:49:18;;;;;;;7.10;3.92;;;;;;;8.74;47.07;98722.41;4986189;28;20041;-95
2023/12/21 09:51:44;;;;;;;5.32;3.40;;;;;;;8.54;47.21;98681.09;4970854;28;20023;-95
2023/12/21 09:54:10;;;;;;;10.77;4.03;;;;;;;8.62;48.06;98699.34;4973241;28;20109;-94
2023/12/21 09:56:50;;;;;;;5.50;3.30;;;;;;;8.67;47.92;98701.19;4939280;29;20039;-96
2023/12/21 09:59:30;;;;;;;7.07;3.45;;;;;;;8.76;47.74;98712.16;4952201;29;20027;-96
2023/12/21 10:01:58;;;;;;;5.88;3.50;;;;;;;8.68;47.36;98692.88;4934540;29;20046;-92
2023/12/21 10:04:24;;;;;;;7.38;3.72;;;;;;;8.49;47.66;98673.06;4935320;29;20042;-93
2023/12/21 10:10:26;;;;;;;8.05;4.38;;;;;;;8.63;47.68;98673.28;4905793;29;20080;-93
2023/12/21 10:12:52;;;;;;;14.88;6.90;;;;;;;8.88;47.50;98689.34;4930300;29;20118;-93
2023/12/21 10:15:19;;;;;;;6.57;3.70;;;;;;;8.72;46.56;98674.34;4931041;29;20125;-91
2023/12/21 10:17:47;;;;;;;4.57;2.90;;;;;;;8.80;46.98;98684.53;4930076;29;20082;-93
2023/12/21 10:23:03;;;;;;;7.30;3.30;;;;;;;8.72;47.45;98670.88;4941206;29;20082;-94
2023/12/21 10:25:39;;;;;;;6.10;3.97;;;;;;;8.87;47.46;98695.75;4937787;29;20032;-88
2023/12/21 10:28:14;;;;;;;5.53;3.20;;;;;;;8.79;46.42;98679.44;4948941;29;20031;-93
2023/12/21 10:30:43;;;;;;;9.70;4.82;;;;;;;8.75;46.65;98664.94;4976479;28;20039;-93
2023/12/21 10:33:15;;;;;;;7.63;3.58;;;;;;;8.97;46.47;98686.88;4987999;28;20030;-94
2023/12/21 10:35:44;;;;;;;8.38;4.47;;;;;;;8.97;46.63;98678.81;4954919;28;20193;-92
2023/12/21 10:38:34;;;;;;;;;;;;;;;;;;;;;
2023/12/21 10:41:31;;;;;;;6.57;3.47;;;;;;;8.93;45.96;98640.19;4978779;28;20069;-94
2023/12/21 10:47:33;;;;;;;9.05;3.45;;;;;;;9.10;45.29;98634.44;4988923;28;20058;-96
2023/12/21 10:50:19;;;;;;;4.88;3.35;;;;;;;9.24;45.79;98642.72;4950923;29;20035;-96
2023/12/21 10:53:01;;;;;;;;;;;;;;;;;;;;;
2023/12/21 10:56:17;;;;;;;6.65;4.28;;;;;;;9.19;45.36;98618.56;4906144;29;20063;-96
2023/12/21 11:02:07;;;;;;;7.43;3.30;;;;;;;9.15;44.93;98612.13;4931979;29;20122;-94
2023/12/21 11:08:53;;;;;;;4.95;3.00;;;;;;;9.00;45.29;98572.75;4897544;29;20073;-95
2023/12/21 11:11:48;;;;;;;;;;;;;;;;;;;;;
2023/12/21 11:14:40;;;;;;;11.52;5.15;;;;;;;9.09;45.18;98577.25;4898167;29;20064;-96
2023/12/21 11:17:37;;;;;;;7.15;3.72;;;;;;;9.17;44.70;98585.81;4915686;29;20072;-95
2023/12/21 11:20:07;;;;;;;8.10;3.92;;;;;;;9.27;44.89;98597.28;4976470;28;20034;-93
2023/12/21 11:22:55;;;;;;;5.45;3.40;;;;;;;9.08;44.94;98572.16;4959184;28;20035;-94
2023/12/21 11:25:33;;;;;;;4.97;3.15;;;;;;;9.09;44.20;98569.22;4983017;28;20480;-94
2023/12/21 11:28:00;;;;;;;9.38;3.75;;;;;;;9.12;44.23;98578.59;4994260;28;20019;-95
2023/12/21 11:30:37;;;;;;;6.28;3.42;;;;;;;9.29;44.11;98589.75;4991508;28;20054;-96
2023/12/21 11:33:17;;;;;;;5.15;3.35;;;;;;;9.10;44.61;98559.25;4968012;28;20030;-95
2023/12/21 11:35:53;;;;;;;6.05;3.67;;;;;;;9.28;44.90;98577.41;4962205;28;20058;-95
2023/12/21 11:38:52;;;;;;;4.05;2.90;;;;;;;9.19;44.21;98548.72;4977706;28;20148;-95
2023/12/21 11:48:16;;;;;;;;;;;;;;;;;;;;;
2023/12/21 11:50:48;;;;;;;8.20;4.40;;;;;;;9.32;42.99;98523.94;4994740;28;20046;-96
2023/12/21 11:53:17;;;;;;;9.25;3.53;;;;;;;9.48;43.01;98538.00;4977147;28;20038;-94
2023/12/21 11:56:14;;;;;;;5.38;3.00;;;;;;;9.42;43.04;98534.59;4977470;28;20049;-95
2023/12/21 11:59:36;;;;;;;;;;;;;;;;;;;;;
2023/12/21 12:06:34;;;;;;;6.28;3.33;;;;;;;9.54;42.49;98530.72;5004062;28;20044;-94
2023/12/21 12:13:35;;;;;;;4.38;2.72;;;;;;;9.45;42.67;98517.91;4814625;29;20034;-93
2023/12/21 12:16:52;;;;;;;3.90;2.53;;;;;;;9.54;42.42;98522.66;4812671;29;20468;-94
2023/12/21 12:19:18;;;;;;;7.70;3.70;;;;;;;9.55;42.81;98529.66;4810154;29;20046;-96
2023/12/21 12:25:51;;;;;;;4.72;2.90;;;;;;;9.44;44.49;98512.78;4737974;30;20095;-95
2023/12/21 12:32:06;;;;;;;6.38;3.30;;;;;;;9.70;45.01;98543.75;4712281;30;20093;-92
2023/12/21 12:48:04;;;;;;;5.40;3.47;;;;;;;9.68;44.90;98535.16;4765529;30;20184;-94
2023/12/21 12:50:32;;;;;;;5.40;2.97;;;;;;;9.54;45.19;98511.91;4755844;30;20044;-94
2023/12/21 12:53:02;;;;;;;6.38;3.00;;;;;;;9.53;45.54;98518.38;4749193;30;20132;-94
2023/12/21 12:55:55;;;;;;;5.22;3.00;;;;;;;9.48;45.23;98498.53;4767161;30;20065;-95
2023/12/21 12:58:29;;;;;;;6.30;3.45;;;;;;;9.54;45.70;98507.34;4817769;29;20048;-94
2023/12/21 13:01:32;;;;;;;6.22;3.67;;;;;;;9.55;46.06;98518.91;4853518;29;20033;-93